• Join FlightAware (Why Join?)
  • Login
  • US Flag 
12:01PM EDT


 

Airport Tracker/Info


-or-


 

Live Flight TrackerFlight Track Log ✈ N240JK ✈ 17-Jun-2013 ✈ KUES - KPIE

Flight Track Log - Related Links

Times and Time Zones

All times are in EDT time to prevent confusion due to time zone crossing. See the N240JK flight status page for this flight to view local times or setup timezone preferences in your user account.

Time Position Orientation Groundspeed Altitude Reporting Facility
EDT Latitude Longitude Course Direction KTS MPH feet Rate Location/Type
09:39AM 43.0500 -88.2667 236° Southwest 167 192 1,800  Level KMKE
09:40AM 43.0333 -88.3000 236° Southwest 212 244 3,800 3,240 Climbing KMKE
09:40AM 42.9842 -88.2794 163° South 270 311 6,300 3,360 Climbing Chicago Center
09:41AM 42.9331 -88.1878 127° Southeast 305 351 10,000 3,420 Climbing Chicago Center
09:42AM 42.8792 -88.0872 126° Southeast 325 374 13,400 3,120 Climbing Chicago Center
09:44AM 42.8039 -87.9564 128° Southeast 379 436 16,500 2,640 Climbing Chicago Center
09:45AM 42.7169 -87.8642 142° Southeast 400 460 18,900 1,740 Climbing Chicago Center
09:46AM 42.5972 -87.8450 173° South 433 498 20,200 1,740 Climbing Chicago Center
09:47AM 42.4778 -87.8322 175° South 433 498 22,600 2,220 Climbing Chicago Center
09:48AM 42.3581 -87.8233 177° South 430 495 24,900 1,140 Climbing Chicago Center
09:49AM 42.2289 -87.8131 177° South 435 501 25,000 540 Climbing Chicago Center
09:50AM 42.1064 -87.8031 177° South 441 507 26,100 1,200 Climbing Chicago Center
09:51AM 41.9797 -87.7908 176° South 455 524 27,600 1,380 Climbing Chicago Center
09:52AM 41.8242 -87.7475 168° South 481 554 29,000 660 Climbing Chicago Center
09:53AM 41.6931 -87.7014 165° South 486 559 29,000  Level Chicago Center
09:54AM 41.5594 -87.6550 165° South 491 565 29,000  Level Chicago Center
09:55AM 41.4269 -87.6092 165° South 489 563 29,000  Level Chicago Center
09:56AM 41.2950 -87.5631 165° South 488 562 29,000 420 Level Chicago Center
09:57AM 41.1631 -87.5183 166° South 488 562 29,900 1,320 Climbing Chicago Center
09:58AM 41.0344 -87.4733 165° South 482 555 31,800 2,100 Climbing Chicago Center
09:59AM 40.8778 -87.4208 166° South 485 558 34,300 2,340 Climbing Chicago Center
10:00AM 40.7503 -87.3783 166° South 477 549 36,700 2,220 Climbing Chicago Center
10:01AM 40.6269 -87.3375 166° South 460 529 38,900 1,080 Climbing Chicago Center
10:02AM 40.5003 -87.2964 166° South 468 539 39,000  Climbing Chicago Center
10:03AM 40.3564 -87.2469 165° South 483 556 39,000  Level Chicago Center
10:04AM 40.2253 -87.2042 166° South 485 558 39,000  Level Chicago Center
10:05AM 40.0981 -87.1581 165° South 479 551 39,000  Level Chicago Center
10:06AM 39.9917 -87.1256 167° South 484 557 39,000  Level Indianapolis Center
10:07AM 39.8622 -87.0833 166° South 482 555 39,000  Level Indianapolis Center
10:08AM 39.7322 -87.0400 166° South 485 558 39,000  Level Indianapolis Center
10:09AM 39.6036 -86.9992 166° South 482 555 39,000  Level Indianapolis Center
10:10AM 39.4744 -86.9581 166° South 481 554 39,000  Level Indianapolis Center
10:11AM 39.3192 -86.9058 165° South 484 557 39,000  Level Indianapolis Center
10:12AM 39.1906 -86.8639 166° South 480 552 39,000  Level Indianapolis Center
10:13AM 39.0611 -86.8214 166° South 483 556 39,000  Level Indianapolis Center
10:14AM 38.9292 -86.7800 166° South 484 557 39,000  Level Indianapolis Center
10:15AM 38.7958 -86.7361 166° South 489 563 39,000  Level Indianapolis Center
10:16AM 38.6625 -86.6925 166° South 489 563 39,000  Level Indianapolis Center
10:17AM 38.5289 -86.6506 166° South 487 560 39,000  Level Indianapolis Center
10:18AM 38.3683 -86.6003 166° South 487 560 39,000  Level Indianapolis Center
10:19AM 38.2353 -86.5556 165° South 488 562 39,000  Level Indianapolis Center
10:20AM 38.1028 -86.5153 167° South 485 558 39,000  Level Indianapolis Center
10:21AM 37.9708 -86.4744 166° South 482 555 39,000  Level Indianapolis Center
10:22AM 37.8408 -86.4353 167° South 477 549 39,000  Level Indianapolis Center
10:24AM 37.7119 -86.3989 167° South 469 540 39,000  Level Indianapolis Center
10:25AM 37.5806 -86.3583 166° South 476 548 39,000  Level Indianapolis Center
10:26AM 37.4472 -86.3128 165° South 488 562 39,000  Level Indianapolis Center
10:27AM 37.2939 -86.2700 167° South 480 552 39,000  Level Indianapolis Center
10:28AM 37.1628 -86.2294 166° South 478 550 39,000  Level Indianapolis Center
10:29AM 37.0339 -86.1869 165° South 473 544 39,000  Level Indianapolis Center
10:30AM 36.9075 -86.1253 159° South 478 550 39,000  Level Indianapolis Center
10:31AM 36.7811 -86.0639 159° South 480 552 39,000  Level Indianapolis Center
10:32AM 36.6553 -86.0028 159° South 480 552 39,000  Level Indianapolis Center
10:33AM 36.5294 -85.9428 159° South 479 551 39,000  Level Indianapolis Center
10:34AM 36.4053 -85.8811 158° South 476 548 39,000  Level Indianapolis Center
10:35AM 36.2572 -85.8117 159° South 481 554 39,000  Level Indianapolis Center
10:36AM 36.1486 -85.7608 159° South 480 552 39,000  Level Indianapolis Center
10:36AM 36.1019 -85.7433 163° South 475 547 39,000  Level Memphis Center
10:38AM 35.9017 -85.6486 159° South 479 551 39,000  Level Atlanta Center
10:39AM 35.7772 -85.5950 161° South 479 551 39,000  Level Atlanta Center
10:40AM 35.6442 -85.5617 168° South 479 551 39,000  Level Atlanta Center
10:41AM 35.5172 -85.5314 169° South 479 551 39,000  Level Atlanta Center
10:42AM 35.3883 -85.4986 168° South 479 551 39,000  Level Atlanta Center
10:43AM 35.2594 -85.4683 169° South 479 551 39,000  Level Atlanta Center
10:44AM 35.1303 -85.4331 167° South 479 551 39,000  Level Atlanta Center
10:45AM 35.0014 -85.4031 169° South 479 551 39,000  Level Atlanta Center
10:46AM 34.8744 -85.3731 169° South 474 545 39,000  Level Atlanta Center
10:47AM 34.7453 -85.3406 168° South 469 540 39,000  Level Atlanta Center
10:48AM 34.6206 -85.3108 169° South 469 540 39,000  Level Atlanta Center
10:49AM 34.4956 -85.2814 169° South 469 540 39,000  Level Atlanta Center
10:50AM 34.3644 -85.2517 169° South 453 521 39,000  Level Atlanta Center
10:51AM 34.2414 -85.2197 168° South 453 521 39,000  Level Atlanta Center
10:52AM 34.1167 -85.1931 170° South 453 521 39,000  Level Atlanta Center
10:53AM 34.0061 -85.1664 169° South 453 521 39,000  Level Atlanta Center
10:54AM 33.8811 -85.1347 168° South 453 521 39,000  Level Atlanta Center
10:55AM 33.7542 -85.1081 170° South 453 521 39,000  Level Atlanta Center
10:56AM 33.6292 -85.0792 169° South 458 527 39,000  Level Atlanta Center
10:57AM 33.5061 -85.0528 170° South 458 527 39,000  Level Atlanta Center
10:58AM 33.3833 -85.0214 168° South 458 527 39,000  Level Atlanta Center
10:59AM 33.2583 -84.9928 169° South 458 527 39,000  Level Atlanta Center
11:00AM 33.1353 -84.9642 169° South 453 521 39,000  Level Atlanta Center
11:01AM 33.0103 -84.9356 169° South 453 521 39,000  Level Atlanta Center
11:02AM 32.8875 -84.9069 169° South 453 521 39,000  Level Atlanta Center
11:03AM 32.7500 -84.8661 166° South 453 521 39,000  Level Atlanta Center
11:04AM 32.6250 -84.8356 168° South 453 521 39,000  Level Atlanta Center
11:05AM 32.5039 -84.8172 173° South 453 521 39,000  Level Atlanta Center
11:06AM 32.3767 -84.7867 169° South 458 527 39,000  Level Atlanta Center
11:07AM 32.2517 -84.7583 169° South 458 527 39,000  Level Atlanta Center
11:08AM 32.1308 -84.7306 169° South 458 527 39,000  Level Atlanta Center
11:10AM 31.9097 -84.6792 169° South 452 520 39,000  Level Jacksonville Center
11:11AM 31.7889 -84.6525 169° South 452 520 39,000  Level Jacksonville Center
11:12AM 31.6683 -84.6233 168° South 447 514 39,000  Level Jacksonville Center
11:13AM 31.5475 -84.5942 168° South 447 514 39,000  Level Jacksonville Center
11:14AM 31.4289 -84.5700 170° South 447 514 39,000  Level Jacksonville Center
11:15AM 31.3125 -84.5339 165° South 447 514 39,000  Level Jacksonville Center
11:16AM 31.2003 -84.4833 159° South 442 509 39,000  Level Jacksonville Center
11:17AM 31.0839 -84.4331 160° South 442 509 39,000  Level Jacksonville Center
11:18AM 30.9697 -84.3825 159° South 442 509 39,000  Level Jacksonville Center
11:19AM 30.8556 -84.3372 161° South 442 509 39,000  Level Jacksonville Center
11:20AM 30.7411 -84.2847 158° South 442 509 39,000  Level Jacksonville Center
11:21AM 30.6247 -84.2372 161° South 442 509 39,000  Level Jacksonville Center
11:22AM 30.5147 -84.1897 160° South 442 509 39,000 -60 Level Jacksonville Center
11:23AM 30.4003 -84.1425 160° South 435 501 38,900 -480 Descending Jacksonville Center
11:24AM 30.2839 -84.0953 161° South 435 501 38,100 -900 Descending Jacksonville Center
11:25AM 30.1675 -84.0433 159° South 440 506 37,200 -960 Descending Jacksonville Center
11:26AM 30.0489 -83.9917 159° South 446 513 36,200 -1,020 Descending Jacksonville Center
11:27AM 29.9303 -83.9422 160° South 446 513 35,200 -600 Descending Jacksonville Center
11:28AM 29.8117 -83.8908 159° South 446 513 35,000 -120 Descending Jacksonville Center
11:29AM 29.7142 -83.8253 150° Southeast 446 513 35,000 -480 Level Jacksonville Center
11:30AM 29.6017 -83.7547 151° Southeast 446 513 34,100 -1,500 Descending Jacksonville Center
11:31AM 29.4875 -83.6822 151° Southeast 457 526 32,000 -2,100 Descending Jacksonville Center
11:32AM 29.3731 -83.6075 150° Southeast 462 532 29,900 -2,160 Descending Jacksonville Center
11:33AM 29.2608 -83.5378 152° Southeast 462 532 27,700 -2,100 Descending Jacksonville Center
11:34AM 29.1483 -83.4633 150° Southeast 462 532 25,700 -1,980 Descending Jacksonville Center
11:35AM 29.0381 -83.3961 152° Southeast 456 525 23,800 -1,920 Descending Jacksonville Center
11:36AM 28.9297 -83.3267 151° Southeast 451 519 21,900 -1,860 Descending Jacksonville Center
11:37AM 28.8278 -83.2575 149° Southeast 443 510 20,100 -1,980 Descending Jacksonville Center
11:39AM 28.6167 -83.1167 150° Southeast 416 479 16,000 -1,980 Descending Tampa TRACON
11:40AM 28.5167 -83.0667 156° South 376 433 14,300 -1,440 Descending Tampa TRACON
11:41AM 28.4333 -83.0167 152° Southeast 322 371 13,000 -1,320 Descending Tampa TRACON
11:42AM 28.3500 -82.9667 152° Southeast 301 346 11,600 -1,500 Descending Tampa TRACON
11:43AM 28.3000 -82.9167 139° Southeast 291 335 10,200 -1,620 Descending Tampa TRACON
11:44AM 28.2167 -82.8833 161° South 283 326 8,600 -1,560 Descending Tampa TRACON
11:45AM 28.1500 -82.8500 156° South 271 312 7,000 -1,560 Descending Tampa TRACON
11:46AM 28.0833 -82.8167 156° South 254 292 5,400 -1,620 Descending Tampa TRACON
11:47AM 28.0000 -82.8000 170° South 242 278 3,700 -1,320 Descending Tampa TRACON
11:48AM 27.9500 -82.7667 150° Southeast 228 262 2,800 -1,020 Descending Tampa TRACON